Time;durP1;ratioP1;P1;durP2;ratioP2;P2;SDS_P1;SDS_P2;PMS_P1;PMS_P2;Temp;Humidity;BMP_temperature;BMP_pressure;BME280_temperature;BME280_humidity;BME280_pressure;Samples;Min_cycle;Max_cycle;Signal;HPM_P1;HPM_P2
2022/04/06 00:00:47;;;;;;;32.55;10.15;;;;;;;9.04;89.33;100443.94;5028390;28;20049;-58
2022/04/06 00:03:13;;;;;;;26.38;10.32;;;;;;;9.00;89.50;100426.75;5023611;28;20025;-58
2022/04/06 00:05:38;;;;;;;29.23;10.43;;;;;;;8.98;89.60;100424.28;5023968;28;20578;-57
2022/04/06 00:08:04;;;;;;;25.73;10.23;;;;;;;8.97;89.71;100430.56;5024133;28;20030;-58
2022/04/06 00:10:31;;;;;;;33.47;11.20;;;;;;;8.94;89.84;100427.41;5023012;28;20241;-58
2022/04/06 00:12:57;;;;;;;30.63;11.85;;;;;;;8.96;89.74;100438.66;5026769;28;20026;-58
2022/04/06 00:15:22;;;;;;;26.27;10.30;;;;;;;8.95;89.96;100432.53;5026165;28;20029;-58
2022/04/06 00:17:47;;;;;;;32.92;11.02;;;;;;;8.90;89.80;100418.97;5027136;28;20025;-58
2022/04/06 00:20:13;;;;;;;32.15;11.10;;;;;;;8.93;89.68;100434.53;5024276;28;20033;-58
2022/04/06 00:22:38;;;;;;;27.30;10.77;;;;;;;8.90;89.95;100428.75;5025805;28;20054;-58
2022/04/06 00:25:04;;;;;;;33.45;11.30;;;;;;;8.89;89.90;100411.19;5028247;28;20409;-58
2022/04/06 00:27:29;;;;;;;31.35;12.05;;;;;;;8.88;89.93;100420.16;5028184;28;20032;-59
2022/04/06 00:29:54;;;;;;;29.00;10.80;;;;;;;8.86;89.69;100422.97;5026264;28;20033;-58
2022/04/06 00:32:20;;;;;;;33.22;10.93;;;;;;;8.86;89.97;100417.66;5023162;28;20026;-58
2022/04/06 00:37:29;;;;;;;32.88;11.20;;;;;;;8.84;89.84;100405.59;5021421;28;20421;-58
2022/04/06 00:39:54;;;;;;;28.70;10.05;;;;;;;8.83;89.87;100414.53;5026222;28;20469;-57
2022/04/06 00:42:19;;;;;;;29.40;10.35;;;;;;;8.82;89.90;100408.41;5026140;28;20091;-58
2022/04/06 00:44:45;;;;;;;30.20;10.68;;;;;;;8.84;89.80;100403.78;5025939;28;20485;-58
2022/04/06 00:47:10;;;;;;;29.70;9.27;;;;;;;8.83;89.85;100401.28;5027191;28;20021;-58
2022/04/06 00:49:35;;;;;;;28.70;9.18;;;;;;;8.82;89.97;100412.88;5017835;28;20449;-58
2022/04/06 00:52:06;;;;;;;25.88;10.27;;;;;;;8.81;89.76;100413.88;5027444;28;20507;-58
2022/04/06 00:54:32;;;;;;;29.27;9.10;;;;;;;8.82;89.65;100403.13;5026324;28;20025;-58
2022/04/06 00:56:58;;;;;;;25.77;9.18;;;;;;;8.81;89.67;100393.53;5027823;28;20033;-58
2022/04/06 00:59:26;;;;;;;26.88;8.60;;;;;;;8.81;89.56;100379.47;5021111;28;20539;-58
2022/04/06 01:01:52;;;;;;;21.53;8.70;;;;;;;8.82;89.50;100389.88;5026745;28;20492;-58
2022/04/06 01:04:18;;;;;;;25.75;8.95;;;;;;;8.83;89.40;100390.72;5024219;28;20287;-58
2022/04/06 01:06:45;;;;;;;22.65;8.52;;;;;;;8.80;89.39;100396.34;5024959;28;20405;-58
2022/04/06 01:09:10;;;;;;;20.17;7.78;;;;;;;8.79;89.63;100389.41;5027395;28;20179;-58
2022/04/06 01:11:36;;;;;;;24.02;8.48;;;;;;;8.77;89.51;100383.44;5025931;28;20556;-58
2022/04/06 01:14:02;;;;;;;29.25;8.30;;;;;;;8.77;89.48;100386.91;5028164;28;20033;-58
2022/04/06 01:16:28;;;;;;;32.58;8.80;;;;;;;8.77;89.34;100383.44;5024886;28;20029;-58
2022/04/06 01:18:54;;;;;;;31.13;8.85;;;;;;;8.76;89.50;100384.44;5025981;28;20051;-58
2022/04/06 01:21:20;;;;;;;29.85;8.40;;;;;;;8.75;89.34;100382.78;5026163;28;20488;-58
2022/04/06 01:23:45;;;;;;;31.42;8.38;;;;;;;8.74;89.00;100381.16;5025199;28;20029;-58
2022/04/06 01:26:12;;;;;;;25.08;8.18;;;;;;;8.74;89.54;100384.63;5022871;28;20420;-58
2022/04/06 01:28:38;;;;;;;32.17;8.60;;;;;;;8.72;89.62;100370.72;5024126;28;20056;-58
2022/04/06 01:31:04;;;;;;;22.88;8.10;;;;;;;8.69;89.32;100371.91;5026700;28;20109;-58
2022/04/06 01:33:30;;;;;;;23.75;7.90;;;;;;;8.75;88.91;100373.03;5025357;28;20108;-58
2022/04/06 01:35:56;;;;;;;28.70;8.18;;;;;;;8.74;88.88;100376.69;5027201;28;20068;-58
2022/04/06 01:38:22;;;;;;;30.98;8.60;;;;;;;8.72;89.07;100370.72;5022513;28;20033;-58
2022/04/06 01:40:47;;;;;;;24.77;7.78;;;;;;;8.72;89.24;100373.38;5025775;28;20100;-58
2022/04/06 01:43:13;;;;;;;30.70;7.78;;;;;;;8.71;88.69;100368.25;5025163;28;20037;-58
2022/04/06 01:45:38;;;;;;;19.63;7.95;;;;;;;8.71;89.13;100361.13;5022351;28;20108;-58
2022/04/06 01:48:04;;;;;;;21.80;7.63;;;;;;;8.70;88.72;100370.06;5025438;28;20033;-58
2022/04/06 01:53:13;;;;;;;21.10;7.10;;;;;;;8.73;88.21;100363.63;5026883;28;20111;-59
2022/04/06 01:55:38;;;;;;;18.27;6.75;;;;;;;8.71;88.29;100363.78;5027255;28;20056;-58
2022/04/06 01:58:03;;;;;;;23.65;7.53;;;;;;;8.73;88.36;100364.44;5022907;28;20021;-58
2022/04/06 02:00:28;;;;;;;22.40;7.10;;;;;;;8.70;88.43;100370.06;5026116;28;20017;-57
2022/04/06 02:02:54;;;;;;;21.17;6.78;;;;;;;8.69;88.27;100368.41;5021232;28;20038;-59
2022/04/06 02:05:20;;;;;;;22.40;6.70;;;;;;;8.66;88.17;100358.16;5026994;28;20511;-58
2022/04/06 02:07:50;;;;;;;23.55;6.78;;;;;;;8.69;88.21;100368.41;5026046;28;20512;-58
2022/04/06 02:10:16;;;;;;;20.88;6.57;;;;;;;8.66;87.70;100363.44;5022572;28;20091;-57
2022/04/06 02:12:42;;;;;;;24.88;7.00;;;;;;;8.65;87.81;100367.09;5022901;28;20030;-58
2022/04/06 02:15:12;;;;;;;27.02;6.82;;;;;;;8.65;87.58;100364.44;5019138;28;20037;-58
2022/04/06 02:17:40;;;;;;;25.33;6.05;;;;;;;8.64;87.45;100353.03;5023389;28;20592;-57
2022/04/06 02:20:05;;;;;;;18.50;6.20;;;;;;;8.64;87.42;100360.13;5025068;28;20155;-57
2022/04/06 02:22:31;;;;;;;16.80;5.70;;;;;;;8.62;87.46;100355.00;5018414;28;20018;-58
2022/04/06 02:24:56;;;;;;;19.20;5.30;;;;;;;8.63;86.97;100347.91;5020783;28;20037;-58
2022/04/06 02:27:21;;;;;;;18.20;5.90;;;;;;;8.61;86.94;100349.91;5025074;28;20065;-57
2022/04/06 02:29:47;;;;;;;20.35;5.60;;;;;;;8.59;87.23;100349.25;5019676;28;20029;-58
2022/04/06 02:32:12;;;;;;;23.85;5.75;;;;;;;8.61;86.86;100355.19;5025848;28;20051;-58
2022/04/06 02:34:39;;;;;;;20.42;5.80;;;;;;;8.60;86.87;100349.06;5027288;28;20029;-57
2022/04/06 02:37:05;;;;;;;17.67;5.88;;;;;;;8.61;86.85;100339.31;5029236;28;20033;-58
2022/04/06 02:39:30;;;;;;;19.13;5.53;;;;;;;8.60;86.53;100338.47;5027725;28;20022;-58
2022/04/06 02:41:55;;;;;;;25.70;5.85;;;;;;;8.58;86.16;100337.84;5026571;28;20030;-58
2022/04/06 02:44:21;;;;;;;19.27;5.47;;;;;;;8.58;85.92;100339.66;5027792;28;20056;-58
2022/04/06 02:46:47;;;;;;;21.13;5.32;;;;;;;8.57;86.13;100340.66;5028566;28;20033;-58
2022/04/06 02:49:13;;;;;;;21.45;5.43;;;;;;;8.53;85.87;100331.41;5023212;28;20018;-58
2022/04/06 02:51:39;;;;;;;16.40;5.07;;;;;;;8.53;85.71;100334.03;5022293;28;20037;-58
2022/04/06 02:54:04;;;;;;;16.50;4.70;;;;;;;8.50;86.03;100323.81;5025230;28;20021;-58
2022/04/06 02:56:29;;;;;;;16.83;5.03;;;;;;;8.52;85.39;100325.28;5029299;28;20032;-58
2022/04/06 02:58:55;;;;;;;17.17;5.00;;;;;;;8.50;85.67;100331.75;5028317;28;20049;-58
2022/04/06 03:01:21;;;;;;;18.75;5.38;;;;;;;8.45;85.41;100321.66;5028939;28;20021;-57
2022/04/06 03:03:46;;;;;;;16.98;4.63;;;;;;;8.43;85.62;100322.84;5027781;28;20040;-58
2022/04/06 03:06:12;;;;;;;20.42;4.60;;;;;;;8.40;85.38;100331.13;5030175;28;20033;-58
2022/04/06 03:08:37;;;;;;;19.73;4.70;;;;;;;8.35;85.45;100319.19;5029111;28;20053;-58
2022/04/06 03:11:03;;;;;;;18.05;5.18;;;;;;;8.32;85.54;100319.50;5024275;28;20030;-57
2022/04/06 03:13:28;;;;;;;15.55;4.60;;;;;;;8.33;85.43;100320.31;5030436;28;20033;-58
2022/04/06 03:15:54;;;;;;;15.35;4.30;;;;;;;8.32;85.31;100308.09;5025596;28;20104;-58
2022/04/06 03:18:20;;;;;;;18.02;4.53;;;;;;;8.31;85.09;100303.81;5024914;28;20105;-58
2022/04/06 03:20:45;;;;;;;15.27;4.80;;;;;;;8.31;84.90;100317.84;5029643;28;20032;-58
2022/04/06 03:23:10;;;;;;;13.20;4.57;;;;;;;8.26;85.26;100296.38;5019970;28;20497;-58
2022/04/06 03:25:36;;;;;;;15.65;4.78;;;;;;;8.29;85.23;100300.50;5029856;28;20064;-58
2022/04/06 03:28:01;;;;;;;15.45;4.25;;;;;;;8.20;84.92;100293.59;5028222;28;20025;-58
2022/04/06 03:30:26;;;;;;;19.80;4.53;;;;;;;8.27;84.56;100291.91;5027007;28;20515;-58
2022/04/06 03:32:52;;;;;;;18.35;4.68;;;;;;;8.24;84.54;100290.44;5027034;28;20033;-58
2022/04/06 03:35:17;;;;;;;14.82;4.13;;;;;;;8.26;84.27;100291.09;5027594;28;20029;-58
2022/04/06 03:37:42;;;;;;;15.75;3.70;;;;;;;8.25;84.01;100283.31;5027782;28;20025;-58
2022/04/06 03:40:08;;;;;;;17.13;4.18;;;;;;;8.23;84.39;100280.03;5028550;28;20442;-58
2022/04/06 03:42:34;;;;;;;19.15;4.28;;;;;;;8.24;83.79;100273.72;5025621;28;20025;-57
2022/04/06 03:44:59;;;;;;;17.90;4.47;;;;;;;8.24;83.79;100274.56;5029564;28;20025;-58
2022/04/06 03:47:32;;;;;;;12.23;4.00;;;;;;;8.23;83.93;100272.91;5025985;28;20052;-58
2022/04/06 03:49:59;;;;;;;13.52;4.20;;;;;;;8.21;84.05;100268.78;5028603;28;20034;-57
2022/04/06 03:52:25;;;;;;;15.45;4.30;;;;;;;8.19;83.93;100270.78;5026103;28;20064;-58
2022/04/06 03:54:51;;;;;;;17.88;3.90;;;;;;;8.14;84.08;100266.00;5026541;28;20053;-58
2022/04/06 03:57:16;;;;;;;13.45;3.97;;;;;;;8.17;84.10;100263.00;5029554;28;20117;-58
2022/04/06 03:59:41;;;;;;;21.27;4.40;;;;;;;8.15;83.76;100270.28;5024242;28;20105;-58
2022/04/06 04:02:06;;;;;;;18.00;4.25;;;;;;;8.19;83.83;100271.59;5028255;28;20029;-58
2022/04/06 04:04:32;;;;;;;17.38;3.90;;;;;;;8.20;83.15;100277.72;5028622;28;20052;-58
2022/04/06 04:06:57;;;;;;;13.95;3.78;;;;;;;8.21;83.36;100271.44;5024591;28;20037;-58
2022/04/06 04:09:22;;;;;;;12.60;3.70;;;;;;;8.19;82.74;100268.13;5027702;28;20064;-58
2022/04/06 04:11:47;;;;;;;15.80;3.40;;;;;;;8.17;82.72;100263.00;5024329;28;20034;-57
2022/04/06 04:14:14;;;;;;;13.20;3.72;;;;;;;8.21;82.60;100268.78;5027310;28;20038;-58
2022/04/06 04:16:39;;;;;;;9.48;3.28;;;;;;;8.21;82.29;100266.97;5027068;28;20029;-58
2022/04/06 04:19:04;;;;;;;12.68;3.20;;;;;;;8.22;82.05;100268.63;5027797;28;20091;-58
2022/04/06 04:21:32;;;;;;;14.35;3.40;;;;;;;8.25;81.52;100270.91;5024073;28;20025;-58
2022/04/06 04:24:02;;;;;;;10.43;3.20;;;;;;;8.28;81.55;100270.56;5028376;28;20084;-58
2022/04/06 04:26:27;;;;;;;;;;;;;;;8.28;81.24;100273.22;5017871;28;20416;-58
2022/04/06 04:28:53;;;;;;;13.38;3.00;;;;;;;8.27;81.39;100261.00;5027226;28;19999;-57
2022/04/06 04:31:18;;;;;;;13.60;3.03;;;;;;;8.30;80.80;100262.47;5024647;28;20029;-58
2022/04/06 04:33:43;;;;;;;11.00;2.97;;;;;;;8.32;81.08;100266.59;5026452;28;20033;-58
2022/04/06 04:36:09;;;;;;;9.20;2.90;;;;;;;8.29;80.85;100256.34;5024195;28;20084;-58
2022/04/06 04:38:36;;;;;;;13.98;3.17;;;;;;;8.29;80.79;100256.34;5026984;28;20029;-58
2022/04/06 04:41:02;;;;;;;12.45;3.13;;;;;;;8.31;80.45;100262.28;5027451;28;20030;-58
2022/04/06 04:43:27;;;;;;;12.82;3.85;;;;;;;8.32;80.95;100255.19;5026734;28;20132;-58
2022/04/06 04:45:53;;;;;;;15.18;3.55;;;;;;;8.33;80.77;100252.41;5026272;28;20044;-57
2022/04/06 04:48:18;;;;;;;14.18;3.63;;;;;;;8.30;80.56;100250.06;5026670;28;20037;-58
2022/04/06 04:50:43;;;;;;;14.70;3.67;;;;;;;8.31;81.13;100242.94;5025882;28;20557;-58
2022/04/06 04:53:08;;;;;;;17.30;4.72;;;;;;;8.29;80.69;100244.94;5024242;28;20040;-58
2022/04/06 04:55:34;;;;;;;13.60;4.10;;;;;;;8.33;81.16;100248.91;5028537;28;20033;-58
2022/04/06 04:57:59;;;;;;;17.55;4.30;;;;;;;8.31;81.05;100246.44;5026580;28;20029;-58
2022/04/06 05:00:25;;;;;;;21.02;5.13;;;;;;;8.31;81.84;100245.59;5026424;28;20018;-59
2022/04/06 05:02:50;;;;;;;16.23;4.50;;;;;;;8.29;81.79;100240.47;5022188;28;20678;-58
2022/04/06 05:05:15;;;;;;;16.23;4.53;;;;;;;8.31;82.13;100235.03;5028909;28;20033;-58
2022/04/06 05:07:41;;;;;;;16.05;5.20;;;;;;;8.32;82.48;100231.38;5028469;28;20040;-59
2022/04/06 05:10:08;;;;;;;18.80;5.07;;;;;;;8.33;82.15;100233.03;5027764;28;20296;-58
2022/04/06 05:12:34;;;;;;;19.33;5.10;;;;;;;8.33;82.40;100240.97;5024076;28;20096;-58
2022/04/06 05:14:59;;;;;;;17.88;5.35;;;;;;;8.32;82.92;100229.56;5028381;28;20742;-58
2022/04/06 05:17:25;;;;;;;23.35;5.85;;;;;;;8.30;82.94;100226.25;5027217;28;20545;-58
2022/04/06 05:19:51;;;;;;;17.27;5.30;;;;;;;8.33;83.03;100219.78;5025759;28;20027;-58
2022/04/06 05:22:16;;;;;;;15.95;5.90;;;;;;;8.32;82.37;100226.91;5024015;28;20030;-58
2022/04/06 05:24:42;;;;;;;21.30;5.72;;;;;;;8.34;83.10;100226.78;5026875;28;20021;-58
2022/04/06 05:27:07;;;;;;;20.13;5.85;;;;;;;8.35;83.28;100217.84;5027503;28;20029;-57
2022/04/06 05:29:32;;;;;;;21.30;5.95;;;;;;;8.33;83.40;100215.38;5026630;28;20448;-58
2022/04/06 05:31:57;;;;;;;15.80;5.43;;;;;;;8.34;83.70;100216.19;5027332;28;20025;-59
2022/04/06 05:34:23;;;;;;;23.08;6.25;;;;;;;8.34;83.73;100217.00;5027761;28;20303;-57
2022/04/06 05:36:48;;;;;;;25.35;6.35;;;;;;;8.36;83.27;100209.72;5027386;28;20033;-58
2022/04/06 05:39:13;;;;;;;18.77;6.40;;;;;;;8.37;83.57;100208.72;5025380;28;20033;-58
2022/04/06 05:41:39;;;;;;;19.52;6.03;;;;;;;8.36;83.51;100211.53;5024356;28;20075;-59
2022/04/06 05:44:04;;;;;;;18.98;6.00;;;;;;;8.38;83.66;100214.84;5025431;28;20029;-58
2022/04/06 05:46:29;;;;;;;21.50;5.38;;;;;;;8.38;83.09;100213.06;5026584;28;20021;-59
2022/04/06 05:48:55;;;;;;;20.08;5.47;;;;;;;8.41;82.87;100219.00;5024096;28;20072;-58
2022/04/06 05:51:21;;;;;;;20.75;6.28;;;;;;;8.41;83.17;100208.41;5023819;28;20562;-58
2022/04/06 05:53:46;;;;;;;17.77;4.60;;;;;;;8.42;82.75;100207.41;5026812;28;20112;-59
2022/04/06 05:56:12;;;;;;;19.30;4.72;;;;;;;8.38;82.57;100198.97;5025271;28;20493;-58
2022/04/06 05:58:37;;;;;;;15.68;4.68;;;;;;;8.47;82.43;100220.94;5021358;28;20114;-58
2022/04/06 06:01:03;;;;;;;16.95;4.13;;;;;;;8.48;82.25;100215.47;5027161;28;20049;-58
2022/04/06 06:03:28;;;;;;;13.52;4.20;;;;;;;8.49;81.83;100227.72;5016534;28;20026;-58
2022/04/06 06:05:54;;;;;;;12.88;3.70;;;;;;;8.51;81.81;100220.44;5026999;28;20448;-57
2022/04/06 06:08:19;;;;;;;17.40;3.50;;;;;;;8.50;81.63;100210.00;5024797;28;20029;-58
2022/04/06 06:10:44;;;;;;;19.38;4.28;;;;;;;8.52;81.58;100208.03;5026846;28;20034;-58
2022/04/06 06:13:09;;;;;;;14.43;3.42;;;;;;;8.50;81.33;100216.13;5027312;28;20037;-58
2022/04/06 06:15:35;;;;;;;11.80;3.20;;;;;;;8.52;80.87;100210.66;5025148;28;20826;-59
2022/04/06 06:18:00;;;;;;;11.98;3.10;;;;;;;8.57;80.51;100221.56;5025732;28;20034;-58
2022/04/06 06:20:27;;;;;;;10.75;3.22;;;;;;;8.59;79.90;100222.19;5024289;28;20138;-58
2022/04/06 06:22:52;;;;;;;8.57;2.80;;;;;;;8.57;79.57;100216.25;5023130;28;20034;-58
2022/04/06 06:25:17;;;;;;;10.35;3.15;;;;;;;8.60;79.19;100226.50;5025694;28;20035;-58
2022/04/06 06:27:44;;;;;;;10.93;2.70;;;;;;;8.59;79.05;100219.56;5024880;28;20053;-58
2022/04/06 06:30:12;;;;;;;8.15;2.55;;;;;;;8.62;78.60;100229.78;5024930;28;20477;-57
2022/04/06 06:32:38;;;;;;;8.90;2.30;;;;;;;8.62;77.76;100205.97;5026739;28;20439;-58
2022/04/06 06:35:04;;;;;;;9.15;2.83;;;;;;;8.59;77.81;100224.84;5024877;28;20065;-58
2022/04/06 06:37:29;;;;;;;8.32;2.17;;;;;;;8.63;77.07;100219.03;5024853;28;20060;-58
2022/04/06 06:39:54;;;;;;;10.70;2.40;;;;;;;8.60;76.88;100200.03;5019073;28;20389;-58
2022/04/06 06:42:20;;;;;;;9.85;2.20;;;;;;;8.66;76.53;100213.38;5023533;28;20064;-58
2022/04/06 06:44:46;;;;;;;6.95;2.40;;;;;;;8.67;75.59;100200.97;5026403;28;20037;-58
2022/04/06 06:47:11;;;;;;;7.43;2.67;;;;;;;8.71;75.74;100209.44;5023009;28;20034;-58
2022/04/06 06:49:37;;;;;;;9.77;2.50;;;;;;;8.73;75.29;100207.44;5024607;28;20022;-58
2022/04/06 06:52:03;;;;;;;6.78;2.38;;;;;;;8.76;74.82;100202.59;5026026;28;20044;-58
2022/04/06 06:54:28;;;;;;;8.43;2.40;;;;;;;8.77;74.20;100206.91;5020143;28;20030;-58
2022/04/06 06:56:54;;;;;;;7.18;2.17;;;;;;;8.80;73.77;100213.66;5019730;28;20034;-58
2022/04/06 06:59:19;;;;;;;7.35;2.20;;;;;;;8.83;73.06;100200.06;5024341;28;20032;-57
2022/04/06 07:01:44;;;;;;;8.18;2.65;;;;;;;8.84;73.37;100199.91;5025731;28;20079;-58
2022/04/06 07:04:09;;;;;;;7.53;2.20;;;;;;;8.83;73.03;100192.97;5025207;28;20396;-58
2022/04/06 07:06:35;;;;;;;6.88;2.33;;;;;;;8.85;72.78;100204.19;5022555;28;20034;-58
2022/04/06 07:09:00;;;;;;;7.88;2.33;;;;;;;8.84;72.96;100194.59;5025549;28;20411;-58
2022/04/06 07:11:25;;;;;;;7.78;1.98;;;;;;;8.85;72.54;100195.44;5025867;28;20112;-58
2022/04/06 07:13:50;;;;;;;7.38;2.17;;;;;;;8.85;72.75;100198.91;5025035;28;20109;-58
2022/04/06 07:16:16;;;;;;;7.07;1.80;;;;;;;8.86;72.88;100189.13;5020254;28;20508;-58
2022/04/06 07:18:42;;;;;;;6.22;1.70;;;;;;;8.85;72.75;100190.97;5022142;28;20171;-58
2022/04/06 07:21:08;;;;;;;6.55;2.05;;;;;;;8.85;72.55;100183.00;5023539;28;20023;-58
2022/04/06 07:23:33;;;;;;;6.13;1.65;;;;;;;8.89;72.42;100184.31;5026973;28;20026;-58
2022/04/06 07:25:58;;;;;;;7.60;1.90;;;;;;;8.89;72.72;100179.00;5028100;28;20031;-58
2022/04/06 07:28:24;;;;;;;9.45;1.83;;;;;;;8.90;72.67;100174.53;5024655;28;20107;-58
2022/04/06 07:30:49;;;;;;;6.55;1.90;;;;;;;8.93;72.60;100177.66;5028074;28;20390;-58
2022/04/06 07:33:15;;;;;;;8.90;2.05;;;;;;;8.92;72.34;100170.72;5029742;28;20025;-58
2022/04/06 07:35:40;;;;;;;10.95;2.20;;;;;;;8.94;72.14;100162.59;5029916;28;20385;-59
2022/04/06 07:38:06;;;;;;;6.13;1.77;;;;;;;8.92;72.52;100154.81;5028598;28;20029;-58
2022/04/06 07:40:32;;;;;;;5.60;2.03;;;;;;;8.95;72.36;100162.41;5029380;28;20570;-58
2022/04/06 07:42:57;;;;;;;12.25;2.10;;;;;;;8.95;72.72;100157.13;5029112;28;20057;-58
2022/04/06 07:45:24;;;;;;;6.82;1.90;;;;;;;8.98;72.79;100146.19;5029431;28;20068;-58
2022/04/06 07:47:51;;;;;;;8.48;2.00;;;;;;;9.05;72.41;100145.47;5030240;28;20027;-59
2022/04/06 07:50:18;;;;;;;7.32;2.22;;;;;;;9.08;72.76;100150.41;5027707;28;20029;-58
2022/04/06 07:52:44;;;;;;;10.48;2.30;;;;;;;9.12;73.03;100151.72;5033180;28;20017;-58
2022/04/06 07:55:10;;;;;;;9.32;2.30;;;;;;;9.11;72.65;100142.94;5030352;28;20025;-59
2022/04/06 07:57:37;;;;;;;12.43;2.40;;;;;;;9.11;73.26;100136.81;5029040;28;20033;-58
2022/04/06 08:00:08;;;;;;;11.57;2.90;;;;;;;9.08;73.81;100139.81;5025819;28;20038;-58
2022/04/06 08:02:34;;;;;;;10.20;2.40;;;;;;;9.06;74.17;100149.78;5024405;28;20024;-58
2022/04/06 08:04:59;;;;;;;9.50;3.05;;;;;;;9.01;74.24;100145.03;5029772;28;20030;-59
2022/04/06 08:07:25;;;;;;;9.95;2.53;;;;;;;8.97;75.04;100136.59;5024275;28;20439;-58
2022/04/06 08:09:50;;;;;;;11.27;2.70;;;;;;;8.96;75.03;100137.59;5028006;28;20108;-58
2022/04/06 08:12:15;;;;;;;11.20;3.05;;;;;;;8.96;75.50;100150.00;5029146;28;20037;-58
2022/04/06 08:14:40;;;;;;;15.43;3.13;;;;;;;8.93;75.87;100135.28;5029613;28;20013;-59
2022/04/06 08:17:06;;;;;;;10.02;3.30;;;;;;;8.93;76.11;100147.69;5029626;28;20022;-59
2022/04/06 08:19:31;;;;;;;9.70;3.15;;;;;;;8.90;76.57;100135.66;5026995;28;20040;-58
2022/04/06 08:21:56;;;;;;;12.57;3.00;;;;;;;8.95;76.81;100149.16;5029573;28;20024;-58
2022/04/06 08:24:25;;;;;;;9.65;3.70;;;;;;;8.95;77.14;100137.75;5024765;28;20623;-59
2022/04/06 08:26:59;;;;;;;8.63;3.10;;;;;;;8.98;77.17;100140.91;5023733;28;20022;-58
2022/04/06 08:29:24;;;;;;;10.93;3.60;;;;;;;9.03;77.13;100148.31;5027797;28;20052;-58
2022/04/06 08:31:49;;;;;;;12.32;3.20;;;;;;;9.03;77.08;100140.38;5022972;28;20073;-59
2022/04/06 08:34:15;;;;;;;13.20;3.42;;;;;;;9.04;77.35;100149.13;5028883;28;20175;-58
2022/04/06 08:36:41;;;;;;;11.88;3.70;;;;;;;9.06;77.40;100129.41;5029350;28;20163;-59
2022/04/06 08:39:06;;;;;;;10.60;3.55;;;;;;;9.08;77.28;100130.06;5026580;28;20037;-58
2022/04/06 08:41:31;;;;;;;10.85;3.42;;;;;;;9.13;77.15;100133.00;5028690;28;20028;-59
2022/04/06 08:43:57;;;;;;;14.05;4.00;;;;;;;9.18;77.24;100127.16;5027411;28;20013;-58
2022/04/06 08:46:22;;;;;;;13.65;3.70;;;;;;;9.18;77.11;100122.66;5028599;28;20442;-58
2022/04/06 08:48:49;;;;;;;10.93;3.63;;;;;;;9.21;77.53;100121.50;5026539;28;20036;-58
2022/04/06 08:51:18;;;;;;;9.43;3.55;;;;;;;9.25;77.51;100141.31;5028376;28;20029;-59
2022/04/06 08:53:45;;;;;;;12.52;3.47;;;;;;;9.24;77.21;100140.50;5025173;28;20075;-58
2022/04/06 08:56:12;;;;;;;17.55;4.20;;;;;;;9.22;77.59;100121.31;5028007;28;20555;-58
2022/04/06 08:58:38;;;;;;;11.45;3.45;;;;;;;9.17;77.96;100146.69;5026981;28;20389;-58
2022/04/06 09:01:04;;;;;;;14.05;3.80;;;;;;;9.04;78.45;100146.47;5028335;28;20489;-58
2022/04/06 09:03:29;;;;;;;11.98;4.22;;;;;;;8.90;78.77;100143.59;5027219;28;20018;-58
2022/04/06 09:06:13;;;;;;;12.40;3.90;;;;;;;8.80;79.74;100144.84;5026876;28;20428;-58
2022/04/06 09:08:40;;;;;;;13.73;4.40;;;;;;;8.67;81.24;100134.81;5027271;28;20047;-58
2022/04/06 09:11:11;;;;;;;13.45;4.20;;;;;;;8.63;81.71;100130.88;5028011;28;20025;-58
2022/04/06 09:13:38;;;;;;;11.63;4.05;;;;;;;8.68;81.99;100142.59;5027520;28;20029;-58
2022/04/06 09:16:07;;;;;;;15.07;4.25;;;;;;;8.64;82.49;100143.09;5025714;28;20052;-58
2022/04/06 09:18:59;;;;;;;9.05;4.22;;;;;;;8.60;82.26;100144.44;5027352;28;20118;-58
2022/04/06 09:21:25;;;;;;;15.13;5.28;;;;;;;8.60;82.54;100136.50;5025650;28;20029;-58
2022/04/06 09:23:50;;;;;;;13.63;4.65;;;;;;;8.65;82.94;100136.81;5027621;28;20032;-59
2022/04/06 09:26:21;;;;;;;13.35;4.85;;;;;;;8.63;83.41;100138.81;5027991;28;20036;-58
2022/04/06 09:28:49;;;;;;;13.23;4.55;;;;;;;8.64;84.10;100141.28;5022932;28;20029;-58
2022/04/06 09:31:19;;;;;;;10.20;4.57;;;;;;;8.61;84.09;100127.56;5027599;28;20033;-59
2022/04/06 09:34:00;;;;;;;14.88;5.13;;;;;;;8.71;83.75;100138.78;5027241;28;20117;-59
2022/04/06 09:36:30;;;;;;;11.38;4.28;;;;;;;8.73;83.75;100136.78;5027503;28;20022;-58
2022/04/06 09:38:55;;;;;;;12.13;4.50;;;;;;;8.69;84.56;100133.66;5025137;28;20455;-58
2022/04/06 09:41:21;;;;;;;9.90;4.65;;;;;;;8.68;84.34;100139.13;5026289;28;20105;-58
2022/04/06 09:43:47;;;;;;;15.82;4.07;;;;;;;8.67;84.94;100145.41;5026452;28;20025;-59
2022/04/06 09:49:14;;;;;;;9.73;4.30;;;;;;;8.57;85.30;100147.44;5027262;28;20053;-58
2022/04/06 09:51:41;;;;;;;11.50;4.50;;;;;;;8.51;85.81;100130.47;5027598;28;20066;-58
2022/04/06 09:54:08;;;;;;;12.73;4.88;;;;;;;8.47;85.97;100123.03;5027193;28;20040;-58
2022/04/06 09:56:35;;;;;;;10.30;4.90;;;;;;;8.33;87.13;100129.84;5026554;28;20029;-58
2022/04/06 09:59:03;;;;;;;13.48;5.10;;;;;;;8.28;87.88;100113.69;5023751;28;20044;-58
2022/04/06 10:01:35;;;;;;;12.77;5.22;;;;;;;8.31;88.04;100127.38;5026485;28;20100;-58
2022/04/06 10:04:03;;;;;;;10.30;4.70;;;;;;;8.38;87.48;100138.97;5022696;28;20036;-59
2022/04/06 10:06:36;;;;;;;12.10;5.10;;;;;;;8.52;87.29;100123.34;5027043;28;20017;-58
2022/04/06 10:09:04;;;;;;;11.57;4.97;;;;;;;8.60;87.30;100126.75;5026050;28;20401;-58
2022/04/06 10:11:30;;;;;;;13.32;5.25;;;;;;;8.63;87.01;100118.47;5026731;28;20025;-58
2022/04/06 10:13:56;;;;;;;13.20;5.47;;;;;;;8.59;87.79;100113.69;5027183;28;20346;-58
2022/04/06 10:16:23;;;;;;;12.45;5.22;;;;;;;8.59;87.41;100116.34;5020715;28;20509;-58
2022/04/06 10:18:50;;;;;;;15.95;5.15;;;;;;;8.60;87.83;100120.63;5026096;28;20029;-58
2022/04/06 10:21:22;;;;;;;11.07;5.30;;;;;;;8.58;87.99;100122.63;5026173;28;20032;-58
2022/04/06 10:23:50;;;;;;;12.15;4.80;;;;;;;8.58;87.64;100114.69;5022063;28;20197;-58
2022/04/06 10:26:34;;;;;;;11.25;5.07;;;;;;;8.65;87.48;100108.50;5020767;28;20028;-58
2022/04/06 10:28:59;;;;;;;10.00;4.53;;;;;;;8.71;87.42;100127.38;5021899;28;20033;-58
2022/04/06 10:31:28;;;;;;;9.82;4.47;;;;;;;8.64;87.43;100127.22;5023662;28;20048;-58
2022/04/06 10:34:17;;;;;;;10.18;4.22;;;;;;;8.47;88.26;100104.53;5022827;28;20404;-59
2022/04/06 10:36:44;;;;;;;17.00;4.93;;;;;;;8.46;88.51;100098.41;5022104;28;20026;-58
2022/04/06 10:39:11;;;;;;;13.00;5.00;;;;;;;8.47;88.85;100094.75;5022151;28;20041;-57
2022/04/06 10:42:13;;;;;;;16.20;5.90;;;;;;;8.60;88.79;100102.94;5022715;28;20120;-59
2022/04/06 10:44:39;;;;;;;9.20;4.45;;;;;;;8.66;88.03;100110.16;5024191;28;20025;-58
2022/04/06 10:47:12;;;;;;;11.23;4.53;;;;;;;8.69;87.60;100104.53;5023015;28;20025;-59
2022/04/06 10:49:38;;;;;;;9.63;4.45;;;;;;;8.76;86.98;100095.88;5025416;28;20033;-58
2022/04/06 10:52:23;;;;;;;14.50;4.32;;;;;;;8.80;86.45;100091.88;5025893;28;20037;-58
2022/04/06 10:54:50;;;;;;;8.68;4.50;;;;;;;8.84;86.60;100085.22;5024313;28;20091;-58
2022/04/06 10:57:15;;;;;;;11.77;4.32;;;;;;;8.87;86.05;100083.03;5025878;28;20025;-58
2022/04/06 10:59:40;;;;;;;11.77;4.93;;;;;;;8.90;86.20;100074.75;5020738;28;20037;-58
2022/04/06 11:02:16;;;;;;;10.25;4.38;;;;;;;8.94;85.98;100076.03;5028429;28;20090;-59
2022/04/06 11:04:42;;;;;;;14.40;4.47;;;;;;;8.96;85.15;100087.28;5028169;28;20029;-59
2022/04/06 11:07:08;;;;;;;12.70;5.20;;;;;;;8.97;85.40;100072.22;5028532;28;20074;-59
2022/04/06 11:12:28;;;;;;;13.48;4.20;;;;;;;9.06;84.61;100068.50;5024509;28;20263;-59
2022/04/06 11:14:59;;;;;;;11.35;4.22;;;;;;;9.12;84.78;100077.53;5024642;28;20029;-59
2022/04/06 11:17:45;;;;;;;9.90;4.00;;;;;;;9.15;84.47;100069.22;5027521;28;20080;-59
2022/04/06 11:20:18;;;;;;;10.73;3.95;;;;;;;9.19;83.85;100073.16;5028989;28;20124;-59
2022/04/06 11:22:50;;;;;;;9.55;3.72;;;;;;;9.22;83.48;100056.91;5028772;28;20052;-60
2022/04/06 11:25:20;;;;;;;11.63;4.22;;;;;;;9.25;83.25;100068.00;5029709;28;20055;-60
2022/04/06 11:27:46;;;;;;;8.60;3.70;;;;;;;9.23;82.98;100056.72;5027374;28;20508;-60
2022/04/06 11:30:18;;;;;;;11.75;3.80;;;;;;;9.30;82.69;100062.16;5028366;28;20033;-59
2022/04/06 11:32:54;;;;;;;12.25;3.90;;;;;;;9.28;82.63;100054.38;5028158;28;20018;-60
2022/04/06 11:35:21;;;;;;;8.52;3.65;;;;;;;9.29;82.56;100052.56;5022087;28;20021;-60